sensor_id;sensor_type;location;lat;lon;timestamp;P1;durP1;ratioP1;P2;durP2;ratioP2
20480;SDS011;10399;50.754;3.366;2022-10-31T00:00:47;10.38;;;3.60;;
20480;SDS011;10399;50.754;3.366;2022-10-31T00:03:15;7.32;;;3.58;;
20480;SDS011;10399;50.754;3.366;2022-10-31T00:05:43;7.65;;;3.63;;
20480;SDS011;10399;50.754;3.366;2022-10-31T00:08:15;9.23;;;4.00;;
20480;SDS011;10399;50.754;3.366;2022-10-31T00:10:44;7.03;;;3.65;;
20480;SDS011;10399;50.754;3.366;2022-10-31T00:13:12;5.88;;;3.85;;
20480;SDS011;10399;50.754;3.366;2022-10-31T00:15:40;5.65;;;4.05;;
20480;SDS011;10399;50.754;3.366;2022-10-31T00:18:07;5.38;;;4.35;;
20480;SDS011;10399;50.754;3.366;2022-10-31T00:20:36;8.88;;;4.35;;
20480;SDS011;10399;50.754;3.366;2022-10-31T00:23:04;5.22;;;3.90;;
20480;SDS011;10399;50.754;3.366;2022-10-31T00:25:34;6.28;;;3.80;;
20480;SDS011;10399;50.754;3.366;2022-10-31T00:28:03;7.00;;;3.65;;
20480;SDS011;10399;50.754;3.366;2022-10-31T00:30:32;6.82;;;3.85;;
20480;SDS011;10399;50.754;3.366;2022-10-31T00:32:59;4.95;;;3.80;;
20480;SDS011;10399;50.754;3.366;2022-10-31T00:35:26;8.73;;;3.90;;
20480;SDS011;10399;50.754;3.366;2022-10-31T00:37:53;9.65;;;3.72;;
20480;SDS011;10399;50.754;3.366;2022-10-31T00:40:20;6.30;;;3.97;;
20480;SDS011;10399;50.754;3.366;2022-10-31T00:42:47;4.75;;;3.60;;
20480;SDS011;10399;50.754;3.366;2022-10-31T00:45:14;4.68;;;3.47;;
20480;SDS011;10399;50.754;3.366;2022-10-31T00:47:41;7.43;;;3.85;;
20480;SDS011;10399;50.754;3.366;2022-10-31T00:50:08;5.93;;;4.05;;
20480;SDS011;10399;50.754;3.366;2022-10-31T00:52:35;11.48;;;4.47;;
20480;SDS011;10399;50.754;3.366;2022-10-31T00:55:02;8.20;;;4.20;;
20480;SDS011;10399;50.754;3.366;2022-10-31T00:57:29;5.57;;;3.90;;
20480;SDS011;10399;50.754;3.366;2022-10-31T00:59:56;8.13;;;4.43;;
20480;SDS011;10399;50.754;3.366;2022-10-31T01:02:23;7.63;;;4.65;;
20480;SDS011;10399;50.754;3.366;2022-10-31T01:04:50;5.30;;;4.20;;
20480;SDS011;10399;50.754;3.366;2022-10-31T01:07:17;9.02;;;4.22;;
20480;SDS011;10399;50.754;3.366;2022-10-31T01:09:44;8.70;;;4.40;;
20480;SDS011;10399;50.754;3.366;2022-10-31T01:12:11;6.53;;;3.70;;
20480;SDS011;10399;50.754;3.366;2022-10-31T01:14:37;6.35;;;3.78;;
20480;SDS011;10399;50.754;3.366;2022-10-31T01:17:04;6.00;;;3.85;;
20480;SDS011;10399;50.754;3.366;2022-10-31T01:19:31;7.65;;;3.83;;
20480;SDS011;10399;50.754;3.366;2022-10-31T01:21:58;6.57;;;4.00;;
20480;SDS011;10399;50.754;3.366;2022-10-31T01:24:25;8.95;;;3.80;;
20480;SDS011;10399;50.754;3.366;2022-10-31T01:26:52;8.18;;;3.85;;
20480;SDS011;10399;50.754;3.366;2022-10-31T01:29:19;8.68;;;4.78;;
20480;SDS011;10399;50.754;3.366;2022-10-31T01:31:46;9.55;;;4.30;;
20480;SDS011;10399;50.754;3.366;2022-10-31T01:34:13;9.43;;;4.97;;
20480;SDS011;10399;50.754;3.366;2022-10-31T01:36:42;10.73;;;5.47;;
20480;SDS011;10399;50.754;3.366;2022-10-31T01:39:18;8.98;;;5.05;;
20480;SDS011;10399;50.754;3.366;2022-10-31T01:41:46;13.57;;;6.50;;
20480;SDS011;10399;50.754;3.366;2022-10-31T01:51:58;12.25;;;5.60;;
20480;SDS011;10399;50.754;3.366;2022-10-31T01:54:26;9.65;;;5.43;;
20480;SDS011;10399;50.754;3.366;2022-10-31T01:56:58;11.60;;;5.57;;
20480;SDS011;10399;50.754;3.366;2022-10-31T01:59:27;8.60;;;4.72;;
20480;SDS011;10399;50.754;3.366;2022-10-31T02:01:57;9.13;;;5.20;;
20480;SDS011;10399;50.754;3.366;2022-10-31T02:04:25;8.07;;;5.38;;
20480;SDS011;10399;50.754;3.366;2022-10-31T02:06:55;7.47;;;4.90;;
20480;SDS011;10399;50.754;3.366;2022-10-31T02:09:30;8.95;;;5.70;;
20480;SDS011;10399;50.754;3.366;2022-10-31T02:11:59;10.05;;;5.28;;
20480;SDS011;10399;50.754;3.366;2022-10-31T02:14:28;10.98;;;5.75;;
20480;SDS011;10399;50.754;3.366;2022-10-31T02:16:56;10.90;;;5.70;;
20480;SDS011;10399;50.754;3.366;2022-10-31T02:19:27;16.55;;;5.60;;
20480;SDS011;10399;50.754;3.366;2022-10-31T02:22:03;9.35;;;5.30;;
20480;SDS011;10399;50.754;3.366;2022-10-31T02:25:05;13.27;;;5.88;;
20480;SDS011;10399;50.754;3.366;2022-10-31T02:33:45;10.43;;;5.10;;
20480;SDS011;10399;50.754;3.366;2022-10-31T02:44:22;8.95;;;5.10;;
20480;SDS011;10399;50.754;3.366;2022-10-31T02:47:14;9.60;;;5.20;;
20480;SDS011;10399;50.754;3.366;2022-10-31T02:52:25;7.18;;;4.68;;
20480;SDS011;10399;50.754;3.366;2022-10-31T02:54:57;11.15;;;5.07;;
20480;SDS011;10399;50.754;3.366;2022-10-31T02:57:25;7.95;;;4.75;;
20480;SDS011;10399;50.754;3.366;2022-10-31T03:00:05;9.27;;;5.07;;
20480;SDS011;10399;50.754;3.366;2022-10-31T03:08:16;5.95;;;4.05;;
20480;SDS011;10399;50.754;3.366;2022-10-31T03:19:10;12.80;;;5.75;;
20480;SDS011;10399;50.754;3.366;2022-10-31T03:22:19;12.10;;;5.32;;
20480;SDS011;10399;50.754;3.366;2022-10-31T03:24:53;9.50;;;5.57;;
20480;SDS011;10399;50.754;3.366;2022-10-31T03:27:24;10.32;;;5.57;;
20480;SDS011;10399;50.754;3.366;2022-10-31T03:29:55;11.50;;;6.20;;
20480;SDS011;10399;50.754;3.366;2022-10-31T03:32:25;9.68;;;5.88;;
20480;SDS011;10399;50.754;3.366;2022-10-31T03:34:59;13.55;;;7.13;;
20480;SDS011;10399;50.754;3.366;2022-10-31T03:37:30;12.07;;;6.53;;
20480;SDS011;10399;50.754;3.366;2022-10-31T03:40:00;12.10;;;6.32;;
20480;SDS011;10399;50.754;3.366;2022-10-31T03:42:30;10.75;;;6.00;;
20480;SDS011;10399;50.754;3.366;2022-10-31T03:47:40;10.00;;;6.15;;
20480;SDS011;10399;50.754;3.366;2022-10-31T03:50:10;9.18;;;5.80;;
20480;SDS011;10399;50.754;3.366;2022-10-31T03:55:24;8.95;;;5.43;;
20480;SDS011;10399;50.754;3.366;2022-10-31T03:57:57;7.50;;;5.38;;
20480;SDS011;10399;50.754;3.366;2022-10-31T04:00:30;12.15;;;6.38;;
20480;SDS011;10399;50.754;3.366;2022-10-31T04:03:03;12.07;;;6.32;;
20480;SDS011;10399;50.754;3.366;2022-10-31T04:05:45;11.68;;;6.18;;
20480;SDS011;10399;50.754;3.366;2022-10-31T04:08:15;9.48;;;6.18;;
20480;SDS011;10399;50.754;3.366;2022-10-31T04:10:45;11.85;;;5.95;;
20480;SDS011;10399;50.754;3.366;2022-10-31T04:13:16;12.43;;;5.75;;
20480;SDS011;10399;50.754;3.366;2022-10-31T04:15:48;14.15;;;6.68;;
20480;SDS011;10399;50.754;3.366;2022-10-31T04:18:18;10.90;;;5.78;;
20480;SDS011;10399;50.754;3.366;2022-10-31T04:20:46;10.95;;;6.75;;
20480;SDS011;10399;50.754;3.366;2022-10-31T04:23:18;9.40;;;6.38;;
20480;SDS011;10399;50.754;3.366;2022-10-31T04:25:46;12.70;;;6.65;;
20480;SDS011;10399;50.754;3.366;2022-10-31T04:28:13;14.07;;;7.30;;
20480;SDS011;10399;50.754;3.366;2022-10-31T04:30:41;13.73;;;6.95;;
20480;SDS011;10399;50.754;3.366;2022-10-31T04:33:07;11.15;;;6.82;;
20480;SDS011;10399;50.754;3.366;2022-10-31T04:35:35;15.32;;;6.82;;
20480;SDS011;10399;50.754;3.366;2022-10-31T04:38:02;16.00;;;6.85;;
20480;SDS011;10399;50.754;3.366;2022-10-31T04:40:29;15.43;;;7.68;;
20480;SDS011;10399;50.754;3.366;2022-10-31T04:42:56;12.35;;;7.30;;
20480;SDS011;10399;50.754;3.366;2022-10-31T04:45:24;13.68;;;6.97;;
20480;SDS011;10399;50.754;3.366;2022-10-31T04:47:51;15.23;;;6.97;;
20480;SDS011;10399;50.754;3.366;2022-10-31T04:50:17;11.82;;;6.43;;
20480;SDS011;10399;50.754;3.366;2022-10-31T04:52:45;9.57;;;6.00;;
20480;SDS011;10399;50.754;3.366;2022-10-31T04:55:12;12.80;;;6.82;;
20480;SDS011;10399;50.754;3.366;2022-10-31T04:57:43;10.93;;;6.82;;
20480;SDS011;10399;50.754;3.366;2022-10-31T05:00:13;8.60;;;5.50;;
20480;SDS011;10399;50.754;3.366;2022-10-31T05:02:45;8.43;;;5.25;;
20480;SDS011;10399;50.754;3.366;2022-10-31T05:05:14;13.00;;;5.70;;
20480;SDS011;10399;50.754;3.366;2022-10-31T05:07:43;12.55;;;5.78;;
20480;SDS011;10399;50.754;3.366;2022-10-31T05:10:12;12.20;;;7.40;;
20480;SDS011;10399;50.754;3.366;2022-10-31T05:12:54;24.88;;;9.10;;
20480;SDS011;10399;50.754;3.366;2022-10-31T05:15:27;15.90;;;8.85;;
20480;SDS011;10399;50.754;3.366;2022-10-31T05:17:54;16.27;;;8.35;;
20480;SDS011;10399;50.754;3.366;2022-10-31T05:20:23;18.98;;;9.13;;
20480;SDS011;10399;50.754;3.366;2022-10-31T05:22:52;13.60;;;7.45;;
20480;SDS011;10399;50.754;3.366;2022-10-31T05:25:21;18.17;;;8.27;;
20480;SDS011;10399;50.754;3.366;2022-10-31T05:27:50;19.73;;;8.20;;
20480;SDS011;10399;50.754;3.366;2022-10-31T05:30:20;25.23;;;9.07;;
20480;SDS011;10399;50.754;3.366;2022-10-31T05:32:50;22.42;;;8.95;;
20480;SDS011;10399;50.754;3.366;2022-10-31T05:35:19;18.58;;;8.70;;
20480;SDS011;10399;50.754;3.366;2022-10-31T05:37:51;100.40;;;46.28;;
20480;SDS011;10399;50.754;3.366;2022-10-31T05:40:18;120.40;;;55.28;;
20480;SDS011;10399;50.754;3.366;2022-10-31T05:42:46;27.33;;;14.02;;
20480;SDS011;10399;50.754;3.366;2022-10-31T05:45:14;23.08;;;11.45;;
20480;SDS011;10399;50.754;3.366;2022-10-31T05:47:49;16.85;;;9.85;;
20480;SDS011;10399;50.754;3.366;2022-10-31T05:50:17;17.02;;;9.82;;
20480;SDS011;10399;50.754;3.366;2022-10-31T05:52:45;19.85;;;9.55;;
20480;SDS011;10399;50.754;3.366;2022-10-31T05:55:12;16.77;;;8.75;;
20480;SDS011;10399;50.754;3.366;2022-10-31T05:57:39;17.25;;;9.20;;
20480;SDS011;10399;50.754;3.366;2022-10-31T06:00:06;15.32;;;10.13;;
20480;SDS011;10399;50.754;3.366;2022-10-31T06:02:34;16.33;;;8.93;;
20480;SDS011;10399;50.754;3.366;2022-10-31T06:05:02;17.13;;;8.45;;
20480;SDS011;10399;50.754;3.366;2022-10-31T06:07:33;14.13;;;8.88;;
20480;SDS011;10399;50.754;3.366;2022-10-31T06:10:01;17.25;;;9.52;;
20480;SDS011;10399;50.754;3.366;2022-10-31T06:12:30;14.82;;;8.57;;
20480;SDS011;10399;50.754;3.366;2022-10-31T06:15:00;18.00;;;10.00;;
20480;SDS011;10399;50.754;3.366;2022-10-31T06:17:30;16.83;;;9.10;;
20480;SDS011;10399;50.754;3.366;2022-10-31T06:19:57;13.88;;;8.40;;
20480;SDS011;10399;50.754;3.366;2022-10-31T06:22:25;16.40;;;8.95;;
20480;SDS011;10399;50.754;3.366;2022-10-31T06:24:52;21.33;;;9.48;;
20480;SDS011;10399;50.754;3.366;2022-10-31T06:27:19;14.40;;;9.55;;
20480;SDS011;10399;50.754;3.366;2022-10-31T06:29:46;13.75;;;7.68;;
20480;SDS011;10399;50.754;3.366;2022-10-31T06:32:13;18.10;;;8.43;;
20480;SDS011;10399;50.754;3.366;2022-10-31T06:34:41;20.50;;;10.02;;
20480;SDS011;10399;50.754;3.366;2022-10-31T06:37:09;14.65;;;8.55;;
20480;SDS011;10399;50.754;3.366;2022-10-31T06:39:38;19.65;;;9.25;;
20480;SDS011;10399;50.754;3.366;2022-10-31T06:42:05;18.63;;;9.27;;
20480;SDS011;10399;50.754;3.366;2022-10-31T06:44:33;19.73;;;9.40;;
20480;SDS011;10399;50.754;3.366;2022-10-31T06:47:00;16.73;;;9.43;;
20480;SDS011;10399;50.754;3.366;2022-10-31T06:49:26;18.83;;;8.85;;
20480;SDS011;10399;50.754;3.366;2022-10-31T06:51:53;24.02;;;11.23;;
20480;SDS011;10399;50.754;3.366;2022-10-31T06:54:20;22.35;;;10.75;;
20480;SDS011;10399;50.754;3.366;2022-10-31T06:56:48;20.70;;;11.20;;
20480;SDS011;10399;50.754;3.366;2022-10-31T06:59:15;25.60;;;11.68;;
20480;SDS011;10399;50.754;3.366;2022-10-31T07:01:43;17.95;;;11.50;;
20480;SDS011;10399;50.754;3.366;2022-10-31T07:04:11;18.98;;;10.68;;
20480;SDS011;10399;50.754;3.366;2022-10-31T07:06:38;17.00;;;10.30;;
20480;SDS011;10399;50.754;3.366;2022-10-31T07:09:05;18.67;;;10.27;;
20480;SDS011;10399;50.754;3.366;2022-10-31T07:11:32;16.98;;;10.23;;
20480;SDS011;10399;50.754;3.366;2022-10-31T07:13:59;23.40;;;10.52;;
20480;SDS011;10399;50.754;3.366;2022-10-31T07:16:26;17.55;;;9.85;;
20480;SDS011;10399;50.754;3.366;2022-10-31T07:18:53;18.17;;;9.85;;
20480;SDS011;10399;50.754;3.366;2022-10-31T07:21:20;33.97;;;9.93;;
20480;SDS011;10399;50.754;3.366;2022-10-31T07:23:48;17.63;;;9.95;;
20480;SDS011;10399;50.754;3.366;2022-10-31T07:26:15;19.48;;;9.85;;
20480;SDS011;10399;50.754;3.366;2022-10-31T07:28:42;17.73;;;10.20;;
20480;SDS011;10399;50.754;3.366;2022-10-31T07:31:09;16.80;;;9.85;;
20480;SDS011;10399;50.754;3.366;2022-10-31T07:33:36;20.58;;;10.98;;
20480;SDS011;10399;50.754;3.366;2022-10-31T07:36:03;17.85;;;10.85;;
20480;SDS011;10399;50.754;3.366;2022-10-31T07:38:30;17.48;;;10.55;;
20480;SDS011;10399;50.754;3.366;2022-10-31T07:40:59;16.85;;;10.57;;
20480;SDS011;10399;50.754;3.366;2022-10-31T07:43:26;18.48;;;10.85;;
20480;SDS011;10399;50.754;3.366;2022-10-31T07:45:54;20.63;;;10.48;;
20480;SDS011;10399;50.754;3.366;2022-10-31T07:48:21;18.80;;;10.32;;
20480;SDS011;10399;50.754;3.366;2022-10-31T07:50:49;18.10;;;11.02;;
20480;SDS011;10399;50.754;3.366;2022-10-31T07:53:15;19.08;;;10.68;;
20480;SDS011;10399;50.754;3.366;2022-10-31T07:55:42;21.83;;;11.50;;
20480;SDS011;10399;50.754;3.366;2022-10-31T07:58:11;17.30;;;11.10;;
20480;SDS011;10399;50.754;3.366;2022-10-31T08:00:41;22.45;;;11.52;;
20480;SDS011;10399;50.754;3.366;2022-10-31T08:03:13;17.00;;;11.00;;
20480;SDS011;10399;50.754;3.366;2022-10-31T08:05:43;20.38;;;11.38;;
20480;SDS011;10399;50.754;3.366;2022-10-31T08:08:12;21.67;;;13.60;;
20480;SDS011;10399;50.754;3.366;2022-10-31T08:10:40;19.42;;;11.77;;
20480;SDS011;10399;50.754;3.366;2022-10-31T08:13:08;22.05;;;11.65;;
20480;SDS011;10399;50.754;3.366;2022-10-31T08:15:38;21.65;;;12.23;;
20480;SDS011;10399;50.754;3.366;2022-10-31T08:18:12;17.27;;;10.05;;
20480;SDS011;10399;50.754;3.366;2022-10-31T08:20:40;16.50;;;9.90;;
20480;SDS011;10399;50.754;3.366;2022-10-31T08:23:09;19.55;;;10.63;;
20480;SDS011;10399;50.754;3.366;2022-10-31T08:25:37;18.00;;;10.23;;
20480;SDS011;10399;50.754;3.366;2022-10-31T08:28:05;17.48;;;9.88;;
20480;SDS011;10399;50.754;3.366;2022-10-31T08:30:34;21.23;;;9.43;;
20480;SDS011;10399;50.754;3.366;2022-10-31T08:33:12;16.77;;;9.90;;
20480;SDS011;10399;50.754;3.366;2022-10-31T08:35:41;18.40;;;9.98;;
20480;SDS011;10399;50.754;3.366;2022-10-31T08:38:09;15.68;;;9.82;;
20480;SDS011;10399;50.754;3.366;2022-10-31T08:40:38;20.50;;;10.93;;
20480;SDS011;10399;50.754;3.366;2022-10-31T08:43:08;15.00;;;9.55;;
20480;SDS011;10399;50.754;3.366;2022-10-31T08:45:40;15.90;;;9.93;;
20480;SDS011;10399;50.754;3.366;2022-10-31T08:48:14;21.67;;;10.32;;
20480;SDS011;10399;50.754;3.366;2022-10-31T08:50:44;14.57;;;10.10;;
20480;SDS011;10399;50.754;3.366;2022-10-31T08:53:13;13.82;;;9.60;;
20480;SDS011;10399;50.754;3.366;2022-10-31T08:55:42;15.80;;;10.30;;
20480;SDS011;10399;50.754;3.366;2022-10-31T08:58:11;19.45;;;10.25;;
20480;SDS011;10399;50.754;3.366;2022-10-31T09:00:40;20.50;;;11.98;;
20480;SDS011;10399;50.754;3.366;2022-10-31T09:03:14;26.98;;;14.35;;
20480;SDS011;10399;50.754;3.366;2022-10-31T09:05:43;23.63;;;12.98;;
20480;SDS011;10399;50.754;3.366;2022-10-31T09:08:12;22.27;;;12.02;;
20480;SDS011;10399;50.754;3.366;2022-10-31T09:10:42;19.23;;;12.05;;
20480;SDS011;10399;50.754;3.366;2022-10-31T09:13:11;44.80;;;21.73;;
20480;SDS011;10399;50.754;3.366;2022-10-31T09:15:41;51.80;;;23.98;;
20480;SDS011;10399;50.754;3.366;2022-10-31T09:18:11;22.58;;;13.85;;
20480;SDS011;10399;50.754;3.366;2022-10-31T09:20:39;25.90;;;16.58;;
20480;SDS011;10399;50.754;3.366;2022-10-31T09:23:15;34.78;;;19.60;;
20480;SDS011;10399;50.754;3.366;2022-10-31T09:25:43;46.35;;;26.65;;
20480;SDS011;10399;50.754;3.366;2022-10-31T09:28:17;44.30;;;29.65;;
20480;SDS011;10399;50.754;3.366;2022-10-31T09:30:47;49.47;;;32.15;;
20480;SDS011;10399;50.754;3.366;2022-10-31T09:33:16;51.60;;;32.72;;
20480;SDS011;10399;50.754;3.366;2022-10-31T09:35:43;36.83;;;25.48;;
20480;SDS011;10399;50.754;3.366;2022-10-31T09:40:41;27.42;;;17.92;;
20480;SDS011;10399;50.754;3.366;2022-10-31T09:43:39;26.80;;;17.02;;
20480;SDS011;10399;50.754;3.366;2022-10-31T09:46:31;21.63;;;14.60;;
20480;SDS011;10399;50.754;3.366;2022-10-31T09:49:26;19.45;;;13.15;;
20480;SDS011;10399;50.754;3.366;2022-10-31T09:52:12;20.42;;;11.85;;
20480;SDS011;10399;50.754;3.366;2022-10-31T09:55:09;21.33;;;12.45;;
20480;SDS011;10399;50.754;3.366;2022-10-31T09:57:45;19.08;;;11.43;;
20480;SDS011;10399;50.754;3.366;2022-10-31T10:00:15;19.15;;;11.90;;
20480;SDS011;10399;50.754;3.366;2022-10-31T10:02:46;15.98;;;10.90;;
20480;SDS011;10399;50.754;3.366;2022-10-31T10:05:17;15.43;;;10.80;;
20480;SDS011;10399;50.754;3.366;2022-10-31T10:19:02;18.15;;;10.38;;
20480;SDS011;10399;50.754;3.366;2022-10-31T10:21:42;15.10;;;9.98;;
20480;SDS011;10399;50.754;3.366;2022-10-31T10:27:20;16.23;;;9.20;;
20480;SDS011;10399;50.754;3.366;2022-10-31T10:29:52;17.23;;;8.40;;
20480;SDS011;10399;50.754;3.366;2022-10-31T10:32:24;14.35;;;7.88;;
20480;SDS011;10399;50.754;3.366;2022-10-31T10:37:46;12.77;;;7.95;;
20480;SDS011;10399;50.754;3.366;2022-10-31T10:40:19;14.80;;;8.38;;
20480;SDS011;10399;50.754;3.366;2022-10-31T10:42:50;14.13;;;8.32;;
20480;SDS011;10399;50.754;3.366;2022-10-31T10:45:47;13.82;;;7.20;;
20480;SDS011;10399;50.754;3.366;2022-10-31T10:48:57;15.48;;;7.90;;
20480;SDS011;10399;50.754;3.366;2022-10-31T11:02:52;11.07;;;6.53;;
20480;SDS011;10399;50.754;3.366;2022-10-31T11:08:11;15.55;;;6.85;;
20480;SDS011;10399;50.754;3.366;2022-10-31T11:11:01;14.65;;;7.15;;
20480;SDS011;10399;50.754;3.366;2022-10-31T11:13:28;13.75;;;6.45;;
20480;SDS011;10399;50.754;3.366;2022-10-31T11:15:59;9.65;;;6.28;;
20480;SDS011;10399;50.754;3.366;2022-10-31T11:18:39;10.43;;;5.80;;
20480;SDS011;10399;50.754;3.366;2022-10-31T11:21:24;14.30;;;6.40;;
20480;SDS011;10399;50.754;3.366;2022-10-31T11:26:37;10.73;;;6.00;;
20480;SDS011;10399;50.754;3.366;2022-10-31T11:29:10;11.90;;;5.38;;
20480;SDS011;10399;50.754;3.366;2022-10-31T11:31:46;12.90;;;6.45;;
20480;SDS011;10399;50.754;3.366;2022-10-31T11:34:18;14.05;;;6.47;;
20480;SDS011;10399;50.754;3.366;2022-10-31T11:36:56;10.95;;;6.43;;
20480;SDS011;10399;50.754;3.366;2022-10-31T11:39:46;11.35;;;6.10;;
20480;SDS011;10399;50.754;3.366;2022-10-31T11:42:24;9.18;;;5.90;;
20480;SDS011;10399;50.754;3.366;2022-10-31T11:45:33;11.25;;;6.47;;
20480;SDS011;10399;50.754;3.366;2022-10-31T11:48:13;11.38;;;6.10;;
20480;SDS011;10399;50.754;3.366;2022-10-31T11:50:47;15.65;;;5.80;;
20480;SDS011;10399;50.754;3.366;2022-10-31T11:53:21;13.20;;;6.32;;
20480;SDS011;10399;50.754;3.366;2022-10-31T11:56:01;13.27;;;6.43;;
20480;SDS011;10399;50.754;3.366;2022-10-31T11:58:40;12.55;;;6.57;;
20480;SDS011;10399;50.754;3.366;2022-10-31T12:01:22;11.40;;;6.75;;
20480;SDS011;10399;50.754;3.366;2022-10-31T12:04:10;16.92;;;6.35;;
20480;SDS011;10399;50.754;3.366;2022-10-31T12:06:39;13.30;;;6.70;;
20480;SDS011;10399;50.754;3.366;2022-10-31T12:17:16;15.38;;;7.45;;
20480;SDS011;10399;50.754;3.366;2022-10-31T12:26:14;14.63;;;7.82;;
20480;SDS011;10399;50.754;3.366;2022-10-31T12:37:05;19.58;;;8.45;;
20480;SDS011;10399;50.754;3.366;2022-10-31T12:39:50;16.98;;;8.25;;
20480;SDS011;10399;50.754;3.366;2022-10-31T12:42:53;18.00;;;8.50;;
20480;SDS011;10399;50.754;3.366;2022-10-31T12:45:44;20.30;;;9.45;;
20480;SDS011;10399;50.754;3.366;2022-10-31T12:59:33;20.67;;;9.55;;
20480;SDS011;10399;50.754;3.366;2022-10-31T13:04:47;16.45;;;9.50;;
20480;SDS011;10399;50.754;3.366;2022-10-31T13:07:19;21.55;;;9.43;;
20480;SDS011;10399;50.754;3.366;2022-10-31T13:09:56;18.48;;;8.60;;
20480;SDS011;10399;50.754;3.366;2022-10-31T13:12:32;21.30;;;11.23;;
20480;SDS011;10399;50.754;3.366;2022-10-31T13:15:04;23.30;;;10.60;;
20480;SDS011;10399;50.754;3.366;2022-10-31T13:17:51;20.80;;;9.35;;
20480;SDS011;10399;50.754;3.366;2022-10-31T13:20:43;15.43;;;9.25;;
20480;SDS011;10399;50.754;3.366;2022-10-31T13:26:15;18.38;;;8.95;;
20480;SDS011;10399;50.754;3.366;2022-10-31T13:28:57;18.35;;;9.70;;
20480;SDS011;10399;50.754;3.366;2022-10-31T13:31:39;20.73;;;9.13;;
20480;SDS011;10399;50.754;3.366;2022-10-31T13:44:43;18.65;;;9.50;;
20480;SDS011;10399;50.754;3.366;2022-10-31T13:47:24;25.08;;;9.77;;
20480;SDS011;10399;50.754;3.366;2022-10-31T13:50:06;23.55;;;9.52;;
20480;SDS011;10399;50.754;3.366;2022-10-31T13:52:50;23.05;;;9.23;;
20480;SDS011;10399;50.754;3.366;2022-10-31T13:55:37;24.50;;;9.50;;
20480;SDS011;10399;50.754;3.366;2022-10-31T14:03:47;17.33;;;9.23;;
20480;SDS011;10399;50.754;3.366;2022-10-31T14:09:23;21.60;;;9.90;;
20480;SDS011;10399;50.754;3.366;2022-10-31T14:11:51;20.98;;;10.35;;
20480;SDS011;10399;50.754;3.366;2022-10-31T14:14:19;21.67;;;10.38;;
20480;SDS011;10399;50.754;3.366;2022-10-31T14:16:53;24.83;;;11.88;;
20480;SDS011;10399;50.754;3.366;2022-10-31T14:19:23;24.63;;;12.35;;
20480;SDS011;10399;50.754;3.366;2022-10-31T14:21:52;20.45;;;10.05;;
20480;SDS011;10399;50.754;3.366;2022-10-31T14:27:32;13.77;;;8.52;;
20480;SDS011;10399;50.754;3.366;2022-10-31T14:29:54;20.63;;;9.45;;
20480;SDS011;10399;50.754;3.366;2022-10-31T14:32:22;24.38;;;10.70;;
20480;SDS011;10399;50.754;3.366;2022-10-31T14:34:55;17.83;;;9.00;;
20480;SDS011;10399;50.754;3.366;2022-10-31T14:51:44;23.77;;;10.48;;
20480;SDS011;10399;50.754;3.366;2022-10-31T14:54:28;23.95;;;10.93;;
20480;SDS011;10399;50.754;3.366;2022-10-31T14:57:07;23.15;;;9.80;;
20480;SDS011;10399;50.754;3.366;2022-10-31T14:59:56;18.00;;;10.30;;
20480;SDS011;10399;50.754;3.366;2022-10-31T15:02:55;21.10;;;11.02;;
20480;SDS011;10399;50.754;3.366;2022-10-31T15:05:19;21.17;;;9.93;;
20480;SDS011;10399;50.754;3.366;2022-10-31T15:07:57;17.33;;;10.45;;
20480;SDS011;10399;50.754;3.366;2022-10-31T15:10:31;20.05;;;10.77;;
20480;SDS011;10399;50.754;3.366;2022-10-31T15:13:17;18.92;;;10.52;;
20480;SDS011;10399;50.754;3.366;2022-10-31T15:15:48;17.55;;;10.13;;
20480;SDS011;10399;50.754;3.366;2022-10-31T15:18:23;20.83;;;10.35;;
20480;SDS011;10399;50.754;3.366;2022-10-31T15:20:53;18.83;;;9.80;;
20480;SDS011;10399;50.754;3.366;2022-10-31T15:23:25;25.17;;;10.82;;
20480;SDS011;10399;50.754;3.366;2022-10-31T15:25:58;21.88;;;10.30;;
20480;SDS011;10399;50.754;3.366;2022-10-31T15:28:27;23.45;;;11.38;;
20480;SDS011;10399;50.754;3.366;2022-10-31T15:30:55;23.88;;;11.65;;
20480;SDS011;10399;50.754;3.366;2022-10-31T15:33:28;20.65;;;10.85;;
20480;SDS011;10399;50.754;3.366;2022-10-31T15:36:04;26.25;;;12.85;;
20480;SDS011;10399;50.754;3.366;2022-10-31T15:38:31;21.17;;;11.10;;
20480;SDS011;10399;50.754;3.366;2022-10-31T15:43:52;26.67;;;13.38;;
20480;SDS011;10399;50.754;3.366;2022-10-31T15:46:19;19.90;;;12.05;;
20480;SDS011;10399;50.754;3.366;2022-10-31T15:48:46;24.58;;;11.80;;
20480;SDS011;10399;50.754;3.366;2022-10-31T15:51:15;23.80;;;11.73;;
20480;SDS011;10399;50.754;3.366;2022-10-31T15:53:49;22.02;;;10.95;;
20480;SDS011;10399;50.754;3.366;2022-10-31T15:56:29;23.30;;;10.98;;
20480;SDS011;10399;50.754;3.366;2022-10-31T15:58:58;23.75;;;11.35;;
20480;SDS011;10399;50.754;3.366;2022-10-31T16:01:28;21.48;;;9.30;;
20480;SDS011;10399;50.754;3.366;2022-10-31T16:04:14;20.45;;;9.57;;
20480;SDS011;10399;50.754;3.366;2022-10-31T16:10:00;20.98;;;8.75;;
20480;SDS011;10399;50.754;3.366;2022-10-31T16:12:42;16.50;;;8.15;;
20480;SDS011;10399;50.754;3.366;2022-10-31T16:15:15;21.15;;;8.50;;
20480;SDS011;10399;50.754;3.366;2022-10-31T16:17:46;22.40;;;8.98;;
20480;SDS011;10399;50.754;3.366;2022-10-31T16:20:18;21.52;;;9.00;;
20480;SDS011;10399;50.754;3.366;2022-10-31T16:22:51;15.95;;;8.20;;
20480;SDS011;10399;50.754;3.366;2022-10-31T16:25:23;20.15;;;7.85;;
20480;SDS011;10399;50.754;3.366;2022-10-31T16:27:53;25.30;;;8.52;;
20480;SDS011;10399;50.754;3.366;2022-10-31T16:35:56;19.25;;;8.57;;
20480;SDS011;10399;50.754;3.366;2022-10-31T16:38:41;18.77;;;8.25;;
20480;SDS011;10399;50.754;3.366;2022-10-31T16:41:08;20.48;;;7.50;;
20480;SDS011;10399;50.754;3.366;2022-10-31T16:43:35;17.50;;;7.78;;
20480;SDS011;10399;50.754;3.366;2022-10-31T16:46:02;12.52;;;7.13;;
20480;SDS011;10399;50.754;3.366;2022-10-31T16:48:30;21.40;;;8.38;;
20480;SDS011;10399;50.754;3.366;2022-10-31T16:50:57;20.00;;;8.32;;
20480;SDS011;10399;50.754;3.366;2022-10-31T16:53:24;24.83;;;8.80;;
20480;SDS011;10399;50.754;3.366;2022-10-31T16:55:54;17.40;;;8.23;;
20480;SDS011;10399;50.754;3.366;2022-10-31T16:58:26;20.05;;;9.30;;
20480;SDS011;10399;50.754;3.366;2022-10-31T17:00:56;23.60;;;9.57;;
20480;SDS011;10399;50.754;3.366;2022-10-31T17:03:24;24.40;;;9.13;;
20480;SDS011;10399;50.754;3.366;2022-10-31T17:05:51;20.08;;;9.60;;
20480;SDS011;10399;50.754;3.366;2022-10-31T17:08:21;21.73;;;9.32;;
20480;SDS011;10399;50.754;3.366;2022-10-31T17:10:53;25.98;;;9.65;;
20480;SDS011;10399;50.754;3.366;2022-10-31T17:13:23;28.67;;;11.05;;
20480;SDS011;10399;50.754;3.366;2022-10-31T17:15:55;23.10;;;10.48;;
20480;SDS011;10399;50.754;3.366;2022-10-31T17:18:25;19.98;;;10.07;;
20480;SDS011;10399;50.754;3.366;2022-10-31T17:20:57;18.80;;;10.02;;
20480;SDS011;10399;50.754;3.366;2022-10-31T17:23:26;23.65;;;9.48;;
20480;SDS011;10399;50.754;3.366;2022-10-31T17:25:54;21.95;;;10.68;;
20480;SDS011;10399;50.754;3.366;2022-10-31T17:28:22;24.05;;;10.13;;
20480;SDS011;10399;50.754;3.366;2022-10-31T17:30:53;20.85;;;9.57;;
20480;SDS011;10399;50.754;3.366;2022-10-31T17:33:24;20.50;;;9.88;;
20480;SDS011;10399;50.754;3.366;2022-10-31T17:35:51;19.55;;;9.75;;
20480;SDS011;10399;50.754;3.366;2022-10-31T17:38:18;25.80;;;9.55;;
20480;SDS011;10399;50.754;3.366;2022-10-31T17:40:45;18.40;;;8.48;;
20480;SDS011;10399;50.754;3.366;2022-10-31T17:43:13;26.30;;;9.38;;
20480;SDS011;10399;50.754;3.366;2022-10-31T17:45:40;24.25;;;9.93;;
20480;SDS011;10399;50.754;3.366;2022-10-31T17:48:10;26.08;;;9.68;;